.
WxDataArchive / Data Records for 2015-11-23
2015-11-22 November 2015 2015-11-24

Data Records for Monday, 23 November 2015

Time	Temp	Chill	HIndex	Humid	Dewpt	 Wind 	HiWind	WindDir	Rain 	Barom
-----	----	-----	------	-----	-----	------	------	-------	-----	-----
00:00	18.3	18.3	18.3	81	13.5	0	0	---	0.00	30.171 
00:05	18.4	18.4	18.4	81	13.6	0	0	---	0.00	30.171 
00:10	18.4	18.4	18.4	81	13.6	0	0	---	0.00	30.171 
00:15	18.4	18.4	18.4	80	13.3	0	0	---	0.00	30.168 
00:20	18.6	18.6	18.6	79	13.2	0	0	---	0.00	30.168 
00:25	18.8	18.8	18.8	78	13.1	0	0	---	0.00	30.168 
00:30	18.9	18.9	18.9	78	13.2	0	0	---	0.00	30.167 
00:35	19.1	19.1	19.1	77	13.1	0	0	---	0.00	30.167 
00:40	19.2	19.2	19.2	77	13.2	0	0	---	0.00	30.167 
00:45	19.2	19.2	19.2	77	13.2	0	0	---	0.00	30.157 
00:50	19.4	19.4	19.4	77	13.4	0	0	---	0.00	30.157 
00:55	19.5	19.5	19.5	76	13.2	0	0	---	0.00	30.157 
01:00	19.7	19.7	19.7	76	13.4	0	1	270	0.00	30.151 
01:05	19.7	19.7	19.7	76	13.4	0	0	---	0.00	30.151 
01:10	19.9	19.9	19.9	77	13.9	0	0	---	0.00	30.151 
01:15	19.9	19.9	19.9	77	13.9	0	0	---	0.00	30.148 
01:20	19.9	19.9	19.9	77	13.9	0	0	---	0.00	30.148 
01:25	20.0	20.0	20.0	77	14.0	0	0	---	0.00	30.148 
01:30	20.0	20.0	20.0	77	14.0	0	0	---	0.00	30.146 
01:35	20.2	20.2	20.2	77	14.2	0	0	---	0.00	30.146 
01:40	20.3	20.3	20.3	77	14.3	0	1	270	0.00	30.146 
01:45	20.6	20.6	20.6	77	14.6	0	1	270	0.00	30.134 
01:50	21.0	21.0	21.0	77	14.9	0	0	---	0.00	30.134 
01:55	21.1	21.1	21.1	77	15.0	0	0	---	0.00	30.134 
02:00	21.3	21.3	21.3	77	15.2	0	0	---	0.00	30.134 
02:05	21.3	21.3	21.3	77	15.2	0	0	---	0.00	30.134 
02:10	21.4	21.4	21.4	77	15.3	0	0	---	0.00	30.134 
02:15	21.4	21.4	21.4	77	15.3	0	0	---	0.00	30.132 
02:20	21.4	21.4	21.4	77	15.3	0	0	---	0.00	30.132 
02:25	21.6	21.6	21.6	77	15.5	0	0	---	0.00	30.132 
02:30	21.8	21.8	21.8	77	15.7	0	0	---	0.00	30.130 
02:35	21.9	21.9	21.9	77	15.8	0	0	---	0.00	30.130 
02:40	21.9	21.9	21.9	77	15.8	0	0	---	0.00	30.130 
02:45	22.1	22.1	22.1	77	16.0	0	1	270	0.00	30.130 
02:50	22.2	22.2	22.2	77	16.1	0	0	---	0.00	30.130 
02:55	22.4	22.4	22.4	77	16.3	0	0	---	0.00	30.130 
03:00	22.5	22.5	22.5	77	16.4	0	1	270	0.00	30.128 
03:05	22.7	22.7	22.7	77	16.6	0	0	---	0.00	30.128 
03:10	22.9	22.9	22.9	77	16.8	0	0	---	0.00	30.128 
03:15	23.0	23.0	23.0	77	16.9	0	0	---	0.00	30.125 
03:20	23.2	23.2	23.2	77	17.1	0	0	---	0.00	30.125 
03:25	23.3	23.3	23.3	77	17.2	0	0	---	0.00	30.125 
03:30	23.5	23.5	23.5	77	17.4	0	1	270	0.00	30.116 
03:35	23.6	23.6	23.6	77	17.5	0	1	270	0.00	30.116 
03:40	23.8	23.8	23.8	76	17.4	0	0	---	0.00	30.116 
03:45	23.9	23.9	23.9	77	17.8	0	0	---	0.00	30.113 
03:50	24.1	24.1	24.1	77	18.0	0	0	---	0.00	30.113 
03:55	24.2	24.2	24.2	77	18.1	0	0	---	0.00	30.113 
04:00	24.2	24.2	24.2	77	18.1	0	0	---	0.00	30.112 
04:05	24.4	24.4	24.4	77	18.2	0	0	---	0.00	30.112 
04:10	24.4	24.4	24.4	77	18.2	0	0	---	0.00	30.112 
04:15	24.5	24.5	24.5	77	18.3	0	1	270	0.00	30.107 
04:20	24.5	24.5	24.5	77	18.3	0	0	---	0.00	30.107 
04:25	24.7	24.7	24.7	78	18.8	0	0	---	0.00	30.107 
04:30	24.7	24.7	24.7	77	18.5	0	1	270	0.00	30.101 
04:35	24.8	24.8	24.8	78	18.9	0	0	---	0.00	30.101 
04:40	24.8	24.8	24.8	78	18.9	0	0	---	0.00	30.101 
04:45	24.8	24.8	24.8	78	18.9	0	0	---	0.00	30.104 
04:50	25.0	25.0	25.0	78	19.1	0	1	270	0.00	30.104 
04:55	25.1	25.1	25.1	78	19.2	0	0	---	0.00	30.104 
05:00	25.1	25.1	25.1	78	19.2	0	1	270	0.00	30.101 
05:05	25.3	25.3	25.3	78	19.4	0	0	---	0.00	30.101 
05:10	25.4	25.4	25.4	78	19.5	0	0	---	0.00	30.101 
05:15	25.4	25.4	25.4	78	19.5	0	0	---	0.00	30.104 
05:20	25.4	25.4	25.4	77	19.2	0	2	135	0.00	30.104 
05:25	25.6	25.6	25.6	77	19.4	0	1	135	0.00	30.104 
05:30	25.6	25.6	25.6	77	19.4	0	0	---	0.00	30.100 
05:35	25.6	25.6	25.6	76	19.1	0	0	---	0.00	30.100 
05:40	25.4	25.4	25.4	76	18.9	0	0	---	0.00	30.100 
05:45	25.4	25.4	25.4	76	18.9	0	0	---	0.00	30.100 
05:50	25.3	25.3	25.3	77	19.1	0	0	---	0.00	30.100 
05:55	25.3	25.3	25.3	77	19.1	0	0	---	0.00	30.100 
06:00	25.3	25.3	25.3	77	19.1	0	0	---	0.00	30.098 
06:05	25.1	25.1	25.1	77	18.9	0	0	---	0.00	30.098 
06:10	25.1	25.1	25.1	77	18.9	0	0	---	0.00	30.098 
06:15	25.1	25.1	25.1	77	18.9	0	0	---	0.00	30.100 
06:20	25.0	25.0	25.0	77	18.8	0	1	135	0.00	30.100 
06:25	25.0	25.0	25.0	77	18.8	0	0	---	0.00	30.100 
06:30	25.1	25.1	25.1	77	18.9	0	1	135	0.00	30.091 
06:35	25.3	25.3	25.3	77	19.1	0	1	135	0.00	30.091 
06:40	25.6	25.6	25.6	76	19.1	0	2	135	0.00	30.091 
06:45	25.7	25.7	25.7	76	19.2	0	1	135	0.00	30.088 
06:50	25.8	25.8	25.8	75	19.0	0	1	135	0.00	30.088 
06:55	25.8	25.8	25.8	75	19.0	0	1	135	0.00	30.088 
07:00	25.8	25.8	25.8	74	18.7	0	1	135	0.00	30.088 
07:05	25.8	25.8	25.8	74	18.7	0	3	135	0.00	30.088 
07:10	26.0	26.0	26.0	74	18.9	0	3	135	0.00	30.088 
07:15	26.0	26.0	26.0	74	18.9	0	2	135	0.00	30.087 
07:20	26.3	26.3	26.3	74	19.2	0	2	90	0.00	30.087 
07:25	26.4	26.4	26.4	73	18.9	0	1	90	0.00	30.087 
07:30	26.4	26.4	26.4	73	18.9	0	2	90	0.00	30.090 
07:35	26.6	26.6	26.6	73	19.1	0	1	90	0.00	30.090 
07:40	26.6	26.6	26.6	73	19.1	0	2	90	0.00	30.090 
07:45	26.7	26.7	26.7	73	19.2	0	2	90	0.00	30.082 
07:50	26.7	26.7	26.7	73	19.2	0	3	90	0.00	30.082 
07:55	26.9	26.9	26.9	73	19.4	0	2	90	0.00	30.082 
08:00	27.0	27.0	27.0	73	19.5	0	1	90	0.00	30.076 
08:05	27.0	27.0	27.0	73	19.5	0	2	90	0.00	30.076 
08:10	27.2	27.2	27.2	72	19.4	0	2	45	0.00	30.076 
08:15	27.3	27.3	27.3	71	19.2	0	5	45	0.00	30.075 
08:20	27.5	27.5	27.5	71	19.4	0	2	45	0.00	30.075 
08:25	27.6	27.6	27.6	70	19.1	0	2	45	0.00	30.075 
08:30	27.6	27.6	27.6	71	19.4	0	2	270	0.00	30.078 
08:35	27.8	27.8	27.8	71	19.6	0	2	270	0.00	30.078 
08:40	27.9	27.9	27.9	70	19.4	0	1	270	0.00	30.078 
08:45	28.1	28.1	28.1	70	19.6	0	2	270	0.00	30.080 
08:50	28.2	28.2	28.2	70	19.7	0	2	270	0.00	30.080 
08:55	28.4	28.4	28.4	70	19.9	0	1	45	0.00	30.080 
09:00	28.5	28.5	28.5	70	20.0	0	1	45	0.00	30.082 
09:05	28.7	28.7	28.7	69	19.8	0	1	45	0.00	30.082 
09:10	28.8	28.8	28.8	69	19.9	0	1	45	0.00	30.082 
09:15	29.1	29.1	29.1	69	20.2	0	3	45	0.00	30.082 
09:20	29.3	29.3	29.3	69	20.4	0	2	22	0.00	30.082 
09:25	29.5	29.5	29.5	68	20.3	0	1	22	0.00	30.082 
09:30	29.7	29.7	29.7	67	20.1	0	1	0	0.00	30.080 
09:35	29.8	29.8	29.8	67	20.2	0	1	0	0.00	30.080 
09:40	30.0	30.0	30.0	67	20.4	0	2	22	0.00	30.080 
09:45	30.0	30.0	30.0	66	20.0	0	3	270	0.00	30.081 
09:50	30.1	30.1	30.1	66	20.1	0	3	45	0.00	30.081 
09:55	30.1	30.1	30.1	66	20.1	0	1	45	0.00	30.081 
10:00	30.3	30.3	30.3	66	20.3	0	2	315	0.00	30.078 
10:05	30.3	30.3	30.3	66	20.3	0	3	292	0.00	30.078 
10:10	30.4	30.4	30.4	65	20.1	0	1	338	0.00	30.078 
10:15	30.4	30.4	30.4	65	20.1	0	2	338	0.00	30.072 
10:20	30.6	30.6	30.6	64	19.9	1	4	248	0.00	30.072 
10:25	30.7	30.7	30.7	65	20.3	0	2	248	0.00	30.072 
10:30	30.7	30.7	30.7	64	20.0	0	2	248	0.00	30.071 
10:35	30.9	30.9	30.9	65	20.5	0	2	248	0.00	30.071 
10:40	31.0	31.0	31.0	64	20.3	1	3	248	0.00	30.071 
10:45	31.2	31.2	31.2	64	20.5	1	4	248	0.00	30.070 
10:50	31.5	31.5	31.5	65	21.1	0	2	248	0.00	30.070 
10:55	31.6	31.6	31.6	63	20.5	1	3	248	0.00	30.070 
11:00	31.8	31.8	31.8	65	21.4	0	2	292	0.00	30.068 
11:05	31.9	31.9	31.9	64	21.1	0	2	292	0.00	30.068 
11:10	32.1	32.1	32.1	64	21.3	1	6	202	0.00	30.068 
11:15	32.1	32.1	32.1	64	21.3	1	2	292	0.00	30.064 
11:20	32.2	32.2	32.2	63	21.0	1	4	248	0.00	30.064 
11:25	32.4	32.4	32.4	64	21.6	1	3	248	0.00	30.064 
11:30	32.5	32.5	32.5	63	21.3	1	5	248	0.00	30.058 
11:35	32.7	32.7	32.7	62	21.1	2	4	248	0.00	30.058 
11:40	32.8	32.8	32.8	62	21.2	1	3	248	0.00	30.058 
11:45	32.9	32.9	32.9	62	21.3	2	6	248	0.00	30.053 
11:50	33.2	33.2	33.2	64	22.4	1	4	248	0.00	30.053 
11:55	33.5	33.5	33.5	63	22.3	1	4	248	0.00	30.053 
12:00	33.5	33.5	33.5	62	21.9	1	3	248	0.00	30.053 
12:05	33.4	33.4	33.4	61	21.4	1	4	248	0.00	30.053 
12:10	33.5	33.5	33.5	62	21.9	1	4	225	0.00	30.053 
12:15	33.7	33.7	33.7	62	22.1	1	4	248	0.00	30.047 
12:20	33.7	33.7	33.7	62	22.1	1	3	270	0.00	30.047 
12:25	33.8	33.8	33.8	63	22.6	1	5	248	0.00	30.047 
12:30	34.0	34.0	34.0	63	22.7	1	3	248	0.00	30.042 
12:35	34.1	34.1	34.1	64	23.2	0	3	248	0.00	30.042 
12:40	34.3	34.3	34.3	64	23.4	1	3	248	0.01	30.042 
12:45	34.4	34.4	34.4	63	23.1	1	4	248	0.00	30.036 
12:50	34.4	34.4	34.4	63	23.1	1	4	248	0.00	30.036 
12:55	34.6	34.6	34.6	63	23.3	1	6	248	0.00	30.036 
13:00	34.6	34.6	34.6	63	23.3	1	5	248	0.00	30.033 
13:05	34.6	34.6	34.6	64	23.7	2	7	248	0.00	30.033 
13:10	34.7	34.7	34.7	65	24.2	0	3	270	0.00	30.033 
13:15	34.9	34.9	34.9	65	24.3	1	3	225	0.00	30.030 
13:20	35.0	35.0	35.0	65	24.4	2	9	248	0.00	30.030 
13:25	35.2	35.2	35.2	65	24.6	1	5	248	0.00	30.030 
13:30	35.2	35.2	35.2	65	24.6	1	4	248	0.00	30.030 
13:35	35.3	35.3	35.3	65	24.7	1	4	248	0.00	30.030 
13:40	35.5	35.5	35.5	65	24.9	1	4	248	0.00	30.030 
13:45	35.6	35.6	35.6	65	25.0	1	4	248	0.00	30.034 
13:50	35.9	35.9	35.9	65	25.3	1	5	270	0.00	30.034 
13:55	35.9	35.9	35.9	65	25.3	2	5	248	0.00	30.034 
14:00	36.0	36.0	36.0	65	25.4	1	4	270	0.00	30.035 
14:05	36.2	36.2	36.2	66	26.0	0	3	270	0.00	30.035 
14:10	36.5	36.5	36.5	65	25.9	1	3	270	0.00	30.035 
14:15	36.5	36.5	36.5	65	25.9	0	4	248	0.00	30.035 
14:20	36.5	36.5	36.5	65	25.9	1	3	225	0.00	30.035 
14:25	36.5	36.5	36.5	65	25.9	1	4	292	0.00	30.035 
14:30	36.5	36.5	36.5	65	25.9	1	3	248	0.00	30.042 
14:35	36.6	36.6	36.6	65	26.0	0	2	248	0.00	30.042 
14:40	36.8	36.8	36.8	65	26.2	0	3	248	0.01	30.042 
14:45	36.9	36.9	36.9	64	25.9	1	4	248	0.00	30.044 
14:50	36.9	36.9	36.9	64	25.9	1	4	248	0.00	30.044 
14:55	37.0	37.0	37.0	64	26.0	1	5	270	0.00	30.044 
15:00	37.0	37.0	37.0	64	26.0	2	5	270	0.00	30.046 
15:05	36.9	36.9	36.9	65	26.3	2	6	248	0.00	30.046 
15:10	37.2	37.2	37.2	65	26.5	1	4	248	0.00	30.046 
15:15	37.3	37.3	37.3	65	26.6	0	2	248	0.00	30.051 
15:20	37.5	37.5	37.5	65	26.8	1	3	248	0.00	30.051 
15:25	37.3	37.3	37.3	65	26.6	1	4	248	0.00	30.051 
15:30	37.3	37.3	37.3	65	26.6	1	6	248	0.00	30.057 
15:35	37.2	37.2	37.2	65	26.5	1	3	225	0.01	30.057 
15:40	37.0	37.0	37.0	66	26.7	1	5	248	0.00	30.057 
15:45	36.9	36.9	36.9	66	26.6	1	4	248	0.00	30.059 
15:50	36.8	36.8	36.8	66	26.5	1	4	248	0.00	30.059 
15:55	36.6	36.6	36.6	67	26.7	1	4	248	0.00	30.059 
16:00	36.8	36.8	36.8	68	27.2	0	2	248	0.00	30.066 
16:05	36.8	36.8	36.8	68	27.2	1	3	248	0.00	30.066 
16:10	36.6	36.6	36.6	67	26.7	1	3	248	0.00	30.066 
16:15	36.6	36.6	36.6	68	27.1	0	2	248	0.00	30.069 
16:20	36.5	36.5	36.5	68	27.0	1	4	248	0.00	30.069 
16:25	36.5	36.5	36.5	68	27.0	0	2	248	0.01	30.069 
16:30	36.5	36.5	36.5	68	27.0	1	4	248	0.00	30.071 
16:35	36.5	36.5	36.5	69	27.3	0	2	248	0.00	30.071 
16:40	36.3	36.3	36.3	69	27.1	0	3	248	0.00	30.071 
16:45	36.2	36.2	36.2	69	27.0	0	3	248	0.00	30.076 
16:50	36.0	36.0	36.0	69	26.8	0	2	248	0.00	30.076 
16:55	35.9	35.9	35.9	70	27.1	0	2	248	0.00	30.076 
17:00	35.6	35.6	35.6	70	26.8	0	2	248	0.00	30.078 
17:05	35.3	35.3	35.3	71	26.9	0	1	248	0.00	30.078 
17:10	35.2	35.2	35.2	72	27.1	0	1	248	0.00	30.078 
17:15	34.9	34.9	34.9	72	26.8	0	1	248	0.00	30.083 
17:20	34.7	34.7	34.7	73	26.9	0	2	248	0.00	30.083 
17:25	34.6	34.6	34.6	74	27.2	0	1	248	0.00	30.083 
17:30	34.4	34.4	34.4	74	27.0	0	1	248	0.00	30.088 
17:35	34.4	34.4	34.4	75	27.3	0	2	248	0.00	30.088 
17:40	34.4	34.4	34.4	75	27.3	0	1	248	0.00	30.088 
17:45	34.4	34.4	34.4	75	27.3	0	2	248	0.00	30.089 
17:50	34.3	34.3	34.3	75	27.2	0	1	248	0.00	30.089 
17:55	34.1	34.1	34.1	76	27.3	0	1	248	0.00	30.089 
18:00	34.1	34.1	34.1	76	27.3	0	2	248	0.00	30.093 
18:05	34.3	34.3	34.3	76	27.5	0	1	248	0.00	30.093 
18:10	34.4	34.4	34.4	76	27.6	0	1	248	0.00	30.093 
18:15	34.4	34.4	34.4	77	27.9	0	1	248	0.00	30.098 
18:20	34.4	34.4	34.4	77	27.9	0	1	248	0.00	30.098 
18:25	34.4	34.4	34.4	77	27.9	0	1	248	0.00	30.098 
18:30	34.4	34.4	34.4	76	27.6	0	1	248	0.00	30.105 
18:35	34.3	34.3	34.3	76	27.5	0	0	---	0.00	30.105 
18:40	34.0	34.0	34.0	77	27.6	0	1	248	0.00	30.105 
18:45	33.7	33.7	33.7	77	27.3	0	0	---	0.00	30.110 
18:50	33.5	33.5	33.5	77	27.1	0	0	---	0.00	30.110 
18:55	33.1	33.1	33.1	77	26.7	0	0	---	0.00	30.110 
19:00	32.8	32.8	32.8	78	26.7	0	0	---	0.00	30.119 
19:05	32.5	32.5	32.5	79	26.7	0	0	---	0.00	30.119 
19:10	32.4	32.4	32.4	79	26.6	0	0	---	0.00	30.119 
19:15	32.2	32.2	32.2	80	26.7	0	1	248	0.00	30.123 
19:20	32.1	32.1	32.1	80	26.6	0	0	---	0.00	30.123 
19:25	31.9	31.9	31.9	81	26.7	0	0	---	0.00	30.123 
19:30	31.8	31.8	31.8	81	26.6	0	0	---	0.00	30.124 
19:35	31.6	31.6	31.6	81	26.5	0	1	248	0.00	30.124 
19:40	31.6	31.6	31.6	82	26.7	0	1	248	0.00	30.124 
19:45	31.6	31.6	31.6	82	26.7	0	1	248	0.00	30.125 
19:50	31.6	31.6	31.6	82	26.7	0	1	248	0.00	30.125 
19:55	31.6	31.6	31.6	83	27.0	0	1	248	0.00	30.125 
20:00	31.6	31.6	31.6	83	27.0	0	1	248	0.00	30.126 
20:05	31.8	31.8	31.8	83	27.2	0	2	248	0.00	30.126 
20:10	31.9	31.9	31.9	83	27.3	0	1	248	0.00	30.126 
20:15	32.2	32.2	32.2	83	27.6	0	1	248	0.00	30.128 
20:20	32.4	32.4	32.4	83	27.8	0	2	248	0.00	30.128 
20:25	32.4	32.4	32.4	82	27.5	0	1	248	0.00	30.128 
20:30	32.5	32.5	32.5	82	27.6	0	2	248	0.00	30.129 
20:35	32.5	32.5	32.5	82	27.6	0	1	248	0.00	30.129 
20:40	32.5	32.5	32.5	82	27.6	0	2	248	0.00	30.129 
20:45	32.7	32.7	32.7	82	27.8	0	2	248	0.00	30.134 
20:50	32.7	32.7	32.7	82	27.8	0	1	248	0.00	30.134 
20:55	32.7	32.7	32.7	82	27.8	0	1	248	0.00	30.134 
21:00	32.7	32.7	32.7	82	27.8	0	1	248	0.00	30.136 
21:05	32.5	32.5	32.5	82	27.6	0	1	248	0.00	30.136 
21:10	32.5	32.5	32.5	82	27.6	0	1	248	0.00	30.136 
21:15	32.4	32.4	32.4	82	27.5	0	1	248	0.00	30.136 
21:20	32.2	32.2	32.2	82	27.3	0	1	248	0.00	30.136 
21:25	32.2	32.2	32.2	82	27.3	0	0	---	0.00	30.136 
21:30	32.1	32.1	32.1	82	27.2	0	1	248	0.00	30.143 
21:35	31.9	31.9	31.9	82	27.0	0	0	---	0.00	30.143 
21:40	31.8	31.8	31.8	83	27.2	0	1	248	0.00	30.143 
21:45	31.6	31.6	31.6	83	27.0	0	0	---	0.00	30.145 
21:50	31.5	31.5	31.5	83	26.9	0	0	---	0.00	30.145 
21:55	31.3	31.3	31.3	83	26.7	0	0	---	0.00	30.145 
22:00	31.2	31.2	31.2	83	26.6	0	0	---	0.00	30.150 
22:05	31.0	31.0	31.0	84	26.7	0	0	---	0.00	30.150 
22:10	30.9	30.9	30.9	84	26.6	0	0	---	0.00	30.150 
22:15	30.7	30.7	30.7	84	26.4	0	0	---	0.00	30.151 
22:20	30.6	30.6	30.6	84	26.4	0	0	---	0.00	30.151 
22:25	30.4	30.4	30.4	84	26.2	0	0	---	0.00	30.151 
22:30	30.1	30.1	30.1	85	26.1	0	0	---	0.00	30.152 
22:35	30.1	30.1	30.1	85	26.1	0	0	---	0.00	30.152 
22:40	30.0	30.0	30.0	85	26.0	0	1	248	0.00	30.152 
22:45	30.0	30.0	30.0	85	26.0	0	0	---	0.00	30.154 
22:50	30.0	30.0	30.0	86	26.3	0	1	248	0.00	30.154 
22:55	30.0	30.0	30.0	86	26.3	0	0	---	0.00	30.154 
23:00	30.1	30.1	30.1	86	26.4	0	1	248	0.00	30.159 
23:05	30.1	30.1	30.1	86	26.4	0	0	---	0.00	30.159 
23:10	30.1	30.1	30.1	87	26.7	0	1	248	0.00	30.159 
23:15	30.1	30.1	30.1	87	26.7	0	0	---	0.00	30.163 
23:20	30.1	30.1	30.1	87	26.7	0	0	---	0.00	30.163 
23:25	30.3	30.3	30.3	87	26.9	0	1	248	0.00	30.163 
23:30	30.4	30.4	30.4	87	27.0	0	1	248	0.00	30.165 
23:35	30.4	30.4	30.4	87	27.0	0	1	248	0.00	30.165 
23:40	30.6	30.6	30.6	87	27.2	0	1	248	0.00	30.165 
23:45	30.7	30.7	30.7	87	27.3	0	1	248	0.00	30.165 
23:50	30.7	30.7	30.7	87	27.3	0	2	248	0.00	30.165 
23:55	30.9	30.9	30.9	87	27.5	0	1	248	0.00	30.165 

CoCoRaHS
IN-AL-39
A2 Web Hosting
Creative Commons License
GoDaddy
search engine by freefind advanced

loaded 2018-11-19 18:41:30 • last modified 2010-11-18 10:43:29
Privacy PolicyDisclaimer
• wx.awcolley.com is powered by PmWiki v.2002016 •
• all content (unless otherwise noted) © 2018 A W Colley